createdAt,value
2023-02-04T00:00:05.717Z,100746.81
2023-02-04T00:02:32.436Z,100748.47
2023-02-04T00:04:59.409Z,100740.53
2023-02-04T00:07:26.185Z,100759.56
2023-02-04T00:09:55.800Z,100756.13
2023-02-04T00:12:23.211Z,100756.09
2023-02-04T00:14:49.814Z,100764.81
2023-02-04T00:17:17.412Z,100757.00
2023-02-04T00:19:44.036Z,100759.63
2023-02-04T00:22:10.684Z,100758.75
2023-02-04T00:24:37.992Z,100776.00
2023-02-04T00:27:05.949Z,100771.63
2023-02-04T00:29:32.647Z,100769.06
2023-02-04T00:32:00.316Z,100765.69
2023-02-04T00:34:27.028Z,100742.97
2023-02-04T00:36:53.624Z,100776.84
2023-02-04T00:39:20.310Z,100771.63
2023-02-04T00:41:46.874Z,100779.41
2023-02-04T00:44:14.298Z,100775.91
2023-02-04T00:46:43.258Z,100771.50
2023-02-04T00:49:11.070Z,100767.16
2023-02-04T00:51:39.661Z,100768.91
2023-02-04T00:54:07.328Z,100752.47
2023-02-04T00:56:34.557Z,100755.06
2023-02-04T00:59:01.125Z,100762.81
2023-02-04T01:01:27.854Z,100760.25
2023-02-04T01:03:54.438Z,100767.22
2023-02-04T01:06:24.155Z,100735.97
2023-02-04T01:08:51.248Z,100769.94
2023-02-04T01:11:18.249Z,100768.09
2023-02-04T01:13:45.001Z,100759.47
2023-02-04T01:16:12.434Z,100770.78
2023-02-04T01:18:39.120Z,100780.25
2023-02-04T01:21:06.403Z,100774.22
2023-02-04T01:23:33.215Z,100768.09
2023-02-04T01:25:59.778Z,100773.31
2023-02-04T01:28:27.661Z,100781.09
2023-02-04T01:30:55.274Z,100784.59
2023-02-04T01:33:22.644Z,100777.63
2023-02-04T01:35:49.275Z,100774.16
2023-02-04T01:38:16.629Z,100781.09
2023-02-04T01:40:43.508Z,100783.75
2023-02-04T01:43:11.848Z,100776.06
2023-02-04T01:45:39.622Z,100771.75
2023-02-04T01:48:07.679Z,100789.09
2023-02-04T01:50:35.115Z,100783.06
2023-02-04T01:53:02.871Z,100783.06
2023-02-04T01:55:32.453Z,100784.81
2023-02-04T01:57:59.162Z,100732.59
2023-02-04T02:00:31.012Z,100785.69
2023-02-04T02:02:59.474Z,100797.88
2023-02-04T02:05:41.515Z,100795.31
2023-02-04T02:08:08.894Z,100797.94
2023-02-04T02:10:37.568Z,100794.53
2023-02-04T02:13:05.824Z,100790.16
2023-02-04T02:15:32.544Z,100799.69
2023-02-04T02:17:59.290Z,100806.53
2023-02-04T02:20:32.206Z,100797.72
2023-02-04T02:23:04.721Z,100819.38
2023-02-04T02:25:31.449Z,100810.66
2023-02-04T02:28:01.761Z,100816.75
2023-02-04T02:30:31.046Z,100819.38
2023-02-04T02:32:58.141Z,100815.06
2023-02-04T02:35:25.692Z,100825.47
2023-02-04T02:37:52.321Z,100815.88
2023-02-04T02:40:19.192Z,100819.41
2023-02-04T02:42:50.348Z,100822.91
2023-02-04T02:45:28.709Z,100817.66
2023-02-04T02:47:58.701Z,100815.84
2023-02-04T02:50:29.325Z,100817.59
2023-02-04T02:52:56.136Z,100820.22
2023-02-04T02:55:25.716Z,100810.72
2023-02-04T02:57:53.702Z,100816.00
2023-02-04T03:00:29.960Z,100812.47
2023-02-04T03:03:05.086Z,100815.88
2023-02-04T03:05:39.416Z,100804.47
2023-02-04T03:08:06.085Z,100820.19
2023-02-04T03:10:32.946Z,100829.59
2023-02-04T03:13:00.682Z,100832.97
2023-02-04T03:15:27.549Z,100830.31
2023-02-04T03:17:56.617Z,100830.28
2023-02-04T03:20:27.839Z,100816.28
2023-02-04T03:22:55.137Z,100840.63
2023-02-04T03:25:24.610Z,100837.22
2023-02-04T03:27:55.622Z,100841.53
2023-02-04T03:30:23.745Z,100836.25
2023-02-04T03:32:51.539Z,100843.94
2023-02-04T03:35:19.086Z,100841.25
2023-02-04T03:37:45.717Z,100855.94
2023-02-04T03:40:13.290Z,100861.03
2023-02-04T03:42:40.084Z,100841.94
2023-02-04T03:45:06.951Z,100852.38
2023-02-04T03:47:33.568Z,100858.41
2023-02-04T03:50:00.192Z,100851.53
2023-02-04T03:52:26.735Z,100852.34
2023-02-04T03:54:53.306Z,100859.22
2023-02-04T03:57:20.775Z,100849.56
2023-02-04T03:59:47.352Z,100864.25
2023-02-04T04:02:13.977Z,100859.97
2023-02-04T04:04:41.429Z,100857.34
2023-02-04T04:07:08.275Z,100871.19
2023-02-04T04:09:34.835Z,100868.59
2023-02-04T04:12:01.829Z,100856.59
2023-02-04T04:14:28.416Z,100875.69
2023-02-04T04:16:55.006Z,100873.94
2023-02-04T04:19:22.821Z,100876.53
2023-02-04T04:21:49.381Z,100880.06
2023-02-04T04:24:15.926Z,100870.63
2023-02-04T04:26:42.830Z,100876.72
2023-02-04T04:29:09.451Z,100870.47
2023-02-04T04:31:36.137Z,100875.81
2023-02-04T04:34:02.861Z,100879.25
2023-02-04T04:36:29.437Z,100888.88
2023-02-04T04:38:56.006Z,100878.50
2023-02-04T04:41:22.585Z,100881.84
2023-02-04T04:43:49.144Z,100891.41
2023-02-04T04:46:15.762Z,100889.56
2023-02-04T04:48:42.408Z,100889.41
2023-02-04T04:51:09.034Z,100878.91
2023-02-04T04:53:35.676Z,100895.56
2023-02-04T04:56:02.854Z,100881.69
2023-02-04T04:58:29.396Z,100901.59
2023-02-04T05:00:55.995Z,100898.19
2023-02-04T05:03:23.418Z,100893.00
2023-02-04T05:05:49.966Z,100902.47
2023-02-04T05:08:17.120Z,100897.38
2023-02-04T05:10:44.126Z,100885.28
2023-02-04T05:13:11.451Z,100902.84
2023-02-04T05:15:38.456Z,100909.00
2023-02-04T05:18:07.783Z,100913.22
2023-02-04T05:20:34.586Z,100916.56
2023-02-04T05:23:04.464Z,100917.41
2023-02-04T05:25:32.070Z,100918.22
2023-02-04T05:27:58.646Z,100922.59
2023-02-04T05:30:26.447Z,100911.34
2023-02-04T05:32:54.962Z,100929.56
2023-02-04T05:35:21.536Z,100938.19
2023-02-04T05:37:48.114Z,100935.75
2023-02-04T05:40:14.755Z,100943.53
2023-02-04T05:42:41.993Z,100937.41
2023-02-04T05:45:18.008Z,100950.44
2023-02-04T05:47:45.113Z,100949.69
2023-02-04T05:50:11.926Z,100946.19
2023-02-04T05:52:38.965Z,100926.88
2023-02-04T05:55:06.036Z,100946.97
2023-02-04T05:57:32.684Z,100957.47
2023-02-04T05:59:59.302Z,100953.16
